Philadelphia, Pennsylvania
Traffic Map
Current Weather Conditions
Philadelphia, Pennsylvania
Broken Clouds
Broken Clouds
78°
Feels Like: 80°
Wind Chill: 78° Ceiling: 7000
Heat Index: 80° Visibility: 10mi
Dew Point: 64° Wind: 10mph
Humidity: 62% Direction: 290° (WNW)
Pressure: 29.6in Gusts: 0mph
Raw Report DataKPHL 281554Z 29009KT 10SM SCT035 BKN070 BKN110 26/18 A2960 RMK AO2 RAB29E53 SLP023 VCSH P0000 T02560178 $
Traffic Incident Summary
Active as of:
Severity:
Category:
InformationThere was an issue retrieving the traffic information for this location. Please try a different location or try again shortly.
Advertisements
Track Severe Weather on mobile